MSC Gina — 3FLY9 — position and weather

sailwx.info

Track history (hours):
 
Tides and Currents Weather Stations Pressure Air Temp Water Temp Dewpoint Dewpoint Depression Visibility Wind Speed Wind Dir Waves Ship Positions

MSC Gina

Last reported at 2015-May-21 13:25 UTC. Time now 2015-May-26 11:43 UTC.
Position N 46°38' W 071°56'.

Length 259 m; draft 8.3 m.

Type: Ship (hazmat cat A). MMSI: 357542000.

Date/timePositionNaut miles runAvg speedWind from/ knotsBaromVisibWave heightAir tempDewpointWater temp
2015-May-21 13:25N 46°38' W 071°56'1315.3
2015-May-21 12:33N 46°31' W 072°13'1514.7
2015-May-21 11:33N 46°22' W 072°29'1211.8
2015-May-21 10:33N 46°15' W 072°43'1414.0
2015-May-21 09:32N 46°06' W 072°59'28 0.6
2015-May-19 07:33N 45°44' W 073°25'38 9.4
2015-May-19 03:33N 46°13' W 072°50'1110.9
2015-May-19 02:33N 46°17' W 072°35'9 8.9
2015-May-19 01:33N 46°23' W 072°26'1010.5
2015-May-19 00:33N 46°30' W 072°14'10 9.9
2015-May-18 23:33N 46°35' W 072°02'  
2015-May-14 16:06N 40°09' W 031°50'1318.7
2015-May-14 15:25N 40°07' W 031°33'1618.4
2015-May-14 14:33N 40°06' W 031°13'1818.1
2015-May-14 13:33N 40°03' W 030°49'1817.8
2015-May-14 12:33N 40°01' W 030°26'1817.9
2015-May-14 11:34N 39°59' W 030°03'1817.6
2015-May-14 10:33N 39°57' W 029°40'1917.6
2015-May-14 09:28N 39°54' W 029°15'1617.8
2015-May-14 08:33N 39°52' W 028°54'1818.2
2015-May-14 07:34N 39°50' W 028°31'1918.5
2015-May-14 06:32N 39°48' W 028°06'1818.2
2015-May-14 05:32N 39°45' W 027°43'1918.5
2015-May-14 04:32N 39°43' W 027°19'1818.4
2015-May-14 03:34N 39°41' W 026°56'1918.7
2015-May-14 02:33N 39°38' W 026°31'1918.4
2015-May-14 01:31N 39°36' W 026°07'1818.5
2015-May-14 00:34N 39°34' W 025°44'1918.6
2015-May-13 23:31N 39°31' W 025°19'2019.0
2015-May-13 22:27N 39°29' W 024°53'1819.2
2015-May-13 21:29N 39°27' W 024°30'2019.4
2015-May-13 20:27N 39°24' W 024°04'45718.3
2015-May-12 19:31N 38°26' W 014°21'1818.6
2015-May-12 18:33N 38°24' W 013°59'1817.5
2015-May-12 17:31N 38°22' W 013°36'1717.8
2015-May-12 16:33N 38°20' W 013°14'1717.5
2015-May-12 15:33N 38°18' W 012°52'1717.3
2015-May-12 14:34N 38°16' W 012°30'1717.2
2015-May-12 13:33N 38°13' W 012°08'1817.7
2015-May-12 12:33N 38°11' W 011°46'1817.9
2015-May-12 11:34N 38°09' W 011°23'1818.1
2015-May-12 10:34N 38°07' W 011°01'1818.0
2015-May-12 09:34N 38°04' W 010°38'1817.8
2015-May-12 08:34N 38°02' W 010°16'1818.0
2015-May-12 07:33N 37°60' W 009°53'1818.5
2015-May-12 06:33N 37°57' W 009°30'2019.4
2015-May-12 05:33N 37°53' W 009°05'1211.7
2015-May-12 04:33N 37°56' W 008°51'0 0.0
2015-May-12 03:32N 37°56' W 008°51'0 0.0
2015-May-12 02:33N 37°56' W 008°51'0 0.0
2015-May-12 01:32N 37°56' W 008°51'0 0.0
2015-May-12 00:32N 37°56' W 008°51'0 0.0
2015-May-11 23:32N 37°56' W 008°51'0 0.0
2015-May-11 22:32N 37°56' W 008°51'0 0.0
2015-May-11 21:32N 37°56' W 008°51'0 0.0
2015-May-11 20:32N 37°56' W 008°51'0 0.0
2015-May-11 19:32N 37°56' W 008°51'0 0.0
2015-May-11 18:32N 37°56' W 008°51'2 2.2
2015-May-11 17:33N 37°54' W 008°51'4 4.2
2015-May-11 16:33N 37°50' W 008°53'6 6.1
2015-May-11 15:33N 37°44' W 008°56'6 6.3
2015-May-11 14:33N 37°39' W 008°59'6 6.3
2015-May-11 13:33N 37°33' W 009°02'  
Track history (hours):
 
Tides and Currents Weather Stations Pressure Air Temp Water Temp Dewpoint Dewpoint Depression Visibility Wind Speed Wind Dir Waves Ship Positions

MSC Gina

Last reported at 2015-May-21 13:25 UTC. Time now 2015-May-26 11:43 UTC.
Position N 46°38' W 071°56'.

Length 259 m; draft 8.3 m.

Type: Ship (hazmat cat A). MMSI: 357542000.

Date/timePositionNaut miles runAvg speedWind from/ knotsBaromVisibWave heightAir tempDewpointWater temp
2015-May-21 13:25N 46°38' W 071°56'1315.3
2015-May-21 12:33N 46°31' W 072°13'1514.7
2015-May-21 11:33N 46°22' W 072°29'1211.8
2015-May-21 10:33N 46°15' W 072°43'1414.0
2015-May-21 09:32N 46°06' W 072°59'28 0.6
2015-May-19 07:33N 45°44' W 073°25'38 9.4
2015-May-19 03:33N 46°13' W 072°50'1110.9
2015-May-19 02:33N 46°17' W 072°35'9 8.9
2015-May-19 01:33N 46°23' W 072°26'1010.5
2015-May-19 00:33N 46°30' W 072°14'10 9.9
2015-May-18 23:33N 46°35' W 072°02'  
2015-May-14 16:06N 40°09' W 031°50'1318.7
2015-May-14 15:25N 40°07' W 031°33'1618.4
2015-May-14 14:33N 40°06' W 031°13'1818.1
2015-May-14 13:33N 40°03' W 030°49'1817.8
2015-May-14 12:33N 40°01' W 030°26'1817.9
2015-May-14 11:34N 39°59' W 030°03'1817.6
2015-May-14 10:33N 39°57' W 029°40'1917.6
2015-May-14 09:28N 39°54' W 029°15'1617.8
2015-May-14 08:33N 39°52' W 028°54'1818.2
2015-May-14 07:34N 39°50' W 028°31'1918.5
2015-May-14 06:32N 39°48' W 028°06'1818.2
2015-May-14 05:32N 39°45' W 027°43'1918.5
2015-May-14 04:32N 39°43' W 027°19'1818.4
2015-May-14 03:34N 39°41' W 026°56'1918.7
2015-May-14 02:33N 39°38' W 026°31'1918.4
2015-May-14 01:31N 39°36' W 026°07'1818.5
2015-May-14 00:34N 39°34' W 025°44'1918.6
2015-May-13 23:31N 39°31' W 025°19'2019.0
2015-May-13 22:27N 39°29' W 024°53'1819.2
2015-May-13 21:29N 39°27' W 024°30'2019.4
2015-May-13 20:27N 39°24' W 024°04'45718.3
2015-May-12 19:31N 38°26' W 014°21'1818.6
2015-May-12 18:33N 38°24' W 013°59'1817.5
2015-May-12 17:31N 38°22' W 013°36'1717.8
2015-May-12 16:33N 38°20' W 013°14'1717.5
2015-May-12 15:33N 38°18' W 012°52'1717.3
2015-May-12 14:34N 38°16' W 012°30'1717.2
2015-May-12 13:33N 38°13' W 012°08'1817.7
2015-May-12 12:33N 38°11' W 011°46'1817.9
2015-May-12 11:34N 38°09' W 011°23'1818.1
2015-May-12 10:34N 38°07' W 011°01'1818.0
2015-May-12 09:34N 38°04' W 010°38'1817.8
2015-May-12 08:34N 38°02' W 010°16'1818.0
2015-May-12 07:33N 37°60' W 009°53'1818.5
2015-May-12 06:33N 37°57' W 009°30'2019.4
2015-May-12 05:33N 37°53' W 009°05'1211.7
2015-May-12 04:33N 37°56' W 008°51'0 0.0
2015-May-12 03:32N 37°56' W 008°51'0 0.0
2015-May-12 02:33N 37°56' W 008°51'0 0.0
2015-May-12 01:32N 37°56' W 008°51'0 0.0
2015-May-12 00:32N 37°56' W 008°51'0 0.0
2015-May-11 23:32N 37°56' W 008°51'0 0.0
2015-May-11 22:32N 37°56' W 008°51'0 0.0
2015-May-11 21:32N 37°56' W 008°51'0 0.0
2015-May-11 20:32N 37°56' W 008°51'0 0.0
2015-May-11 19:32N 37°56' W 008°51'0 0.0
2015-May-11 18:32N 37°56' W 008°51'2 2.2
2015-May-11 17:33N 37°54' W 008°51'4 4.2
2015-May-11 16:33N 37°50' W 008°53'6 6.1
2015-May-11 15:33N 37°44' W 008°56'6 6.3
2015-May-11 14:33N 37°39' W 008°59'6 6.3
2015-May-11 13:33N 37°33' W 009°02'  

Dump ship's entire track history